sensor_id;sensor_type;location;lat;lon;timestamp;P1;durP1;ratioP1;P2;durP2;ratioP2
35380;SDS011;21486;51.916;8.378;2023-07-28T00:02:15;18.87;;;13.40;;
35380;SDS011;21486;51.916;8.378;2023-07-28T00:04:41;22.55;;;14.70;;
35380;SDS011;21486;51.916;8.378;2023-07-28T00:07:07;27.10;;;15.10;;
35380;SDS011;21486;51.916;8.378;2023-07-28T00:09:32;24.75;;;15.20;;
35380;SDS011;21486;51.916;8.378;2023-07-28T00:11:58;22.50;;;15.30;;
35380;SDS011;21486;51.916;8.378;2023-07-28T00:14:25;26.15;;;15.75;;
35380;SDS011;21486;51.916;8.378;2023-07-28T00:16:51;29.30;;;16.08;;
35380;SDS011;21486;51.916;8.378;2023-07-28T00:19:18;27.13;;;17.10;;
35380;SDS011;21486;51.916;8.378;2023-07-28T00:21:45;25.80;;;16.33;;
35380;SDS011;21486;51.916;8.378;2023-07-28T00:24:12;24.25;;;16.02;;
35380;SDS011;21486;51.916;8.378;2023-07-28T00:26:37;25.65;;;17.05;;
35380;SDS011;21486;51.916;8.378;2023-07-28T00:29:03;26.03;;;17.00;;
35380;SDS011;21486;51.916;8.378;2023-07-28T00:33:01;25.35;;;16.73;;
35380;SDS011;21486;51.916;8.378;2023-07-28T00:35:27;28.83;;;17.73;;
35380;SDS011;21486;51.916;8.378;2023-07-28T00:37:52;27.80;;;17.27;;
35380;SDS011;21486;51.916;8.378;2023-07-28T00:40:18;28.67;;;17.17;;
35380;SDS011;21486;51.916;8.378;2023-07-28T00:42:43;25.48;;;16.17;;
35380;SDS011;21486;51.916;8.378;2023-07-28T00:45:10;25.08;;;15.23;;
35380;SDS011;21486;51.916;8.378;2023-07-28T00:47:35;25.00;;;15.88;;
35380;SDS011;21486;51.916;8.378;2023-07-28T00:50:02;24.55;;;15.52;;
35380;SDS011;21486;51.916;8.378;2023-07-28T00:52:28;25.20;;;15.55;;
35380;SDS011;21486;51.916;8.378;2023-07-28T00:54:53;22.35;;;14.85;;
35380;SDS011;21486;51.916;8.378;2023-07-28T00:57:19;23.55;;;14.10;;
35380;SDS011;21486;51.916;8.378;2023-07-28T00:59:45;20.38;;;13.70;;
35380;SDS011;21486;51.916;8.378;2023-07-28T01:02:11;22.80;;;13.63;;
35380;SDS011;21486;51.916;8.378;2023-07-28T01:04:37;19.65;;;12.73;;
35380;SDS011;21486;51.916;8.378;2023-07-28T01:07:04;18.35;;;11.80;;
35380;SDS011;21486;51.916;8.378;2023-07-28T01:09:50;16.92;;;11.63;;
35380;SDS011;21486;51.916;8.378;2023-07-28T01:12:21;18.35;;;10.93;;
35380;SDS011;21486;51.916;8.378;2023-07-28T01:14:49;16.17;;;10.30;;
35380;SDS011;21486;51.916;8.378;2023-07-28T01:17:14;16.20;;;10.07;;
35380;SDS011;21486;51.916;8.378;2023-07-28T01:19:40;20.15;;;10.48;;
35380;SDS011;21486;51.916;8.378;2023-07-28T01:22:16;16.30;;;9.87;;
35380;SDS011;21486;51.916;8.378;2023-07-28T01:27:49;14.52;;;9.85;;
35380;SDS011;21486;51.916;8.378;2023-07-28T01:30:16;13.77;;;9.45;;
35380;SDS011;21486;51.916;8.378;2023-07-28T01:32:42;15.90;;;9.20;;
35380;SDS011;21486;51.916;8.378;2023-07-28T01:35:08;12.77;;;8.87;;
35380;SDS011;21486;51.916;8.378;2023-07-28T01:37:33;14.35;;;8.70;;
35380;SDS011;21486;51.916;8.378;2023-07-28T01:39:59;13.48;;;7.75;;
35380;SDS011;21486;51.916;8.378;2023-07-28T01:42:24;15.20;;;8.73;;
35380;SDS011;21486;51.916;8.378;2023-07-28T01:44:50;11.87;;;8.00;;
35380;SDS011;21486;51.916;8.378;2023-07-28T01:47:15;15.52;;;8.10;;
35380;SDS011;21486;51.916;8.378;2023-07-28T01:49:41;12.50;;;7.73;;
35380;SDS011;21486;51.916;8.378;2023-07-28T01:52:07;9.98;;;7.65;;
35380;SDS011;21486;51.916;8.378;2023-07-28T01:54:32;10.05;;;6.80;;
35380;SDS011;21486;51.916;8.378;2023-07-28T01:56:58;14.03;;;7.50;;
35380;SDS011;21486;51.916;8.378;2023-07-28T01:59:23;13.70;;;7.97;;
35380;SDS011;21486;51.916;8.378;2023-07-28T02:01:49;12.13;;;8.30;;
35380;SDS011;21486;51.916;8.378;2023-07-28T02:04:15;13.17;;;8.03;;
35380;SDS011;21486;51.916;8.378;2023-07-28T02:06:41;11.48;;;7.80;;
35380;SDS011;21486;51.916;8.378;2023-07-28T02:09:07;16.27;;;8.83;;
35380;SDS011;21486;51.916;8.378;2023-07-28T02:11:32;11.63;;;8.53;;
35380;SDS011;21486;51.916;8.378;2023-07-28T02:13:58;13.50;;;8.60;;
35380;SDS011;21486;51.916;8.378;2023-07-28T02:16:24;14.02;;;8.30;;
35380;SDS011;21486;51.916;8.378;2023-07-28T02:18:52;15.80;;;8.82;;
35380;SDS011;21486;51.916;8.378;2023-07-28T02:21:18;12.93;;;8.60;;
35380;SDS011;21486;51.916;8.378;2023-07-28T02:23:44;16.10;;;9.00;;
35380;SDS011;21486;51.916;8.378;2023-07-28T02:26:09;15.25;;;8.77;;
35380;SDS011;21486;51.916;8.378;2023-07-28T02:28:35;13.00;;;8.80;;
35380;SDS011;21486;51.916;8.378;2023-07-28T02:31:00;13.77;;;8.87;;
35380;SDS011;21486;51.916;8.378;2023-07-28T02:33:27;14.38;;;9.60;;
35380;SDS011;21486;51.916;8.378;2023-07-28T02:35:54;15.75;;;10.20;;
35380;SDS011;21486;51.916;8.378;2023-07-28T02:38:21;15.43;;;9.43;;
35380;SDS011;21486;51.916;8.378;2023-07-28T02:40:46;16.30;;;9.40;;
35380;SDS011;21486;51.916;8.378;2023-07-28T02:43:12;15.63;;;9.85;;
35380;SDS011;21486;51.916;8.378;2023-07-28T02:45:37;15.27;;;9.75;;
35380;SDS011;21486;51.916;8.378;2023-07-28T02:48:03;15.73;;;9.83;;
35380;SDS011;21486;51.916;8.378;2023-07-28T02:50:29;15.65;;;10.30;;
35380;SDS011;21486;51.916;8.378;2023-07-28T02:52:54;14.30;;;9.95;;
35380;SDS011;21486;51.916;8.378;2023-07-28T02:55:20;14.23;;;10.00;;
35380;SDS011;21486;51.916;8.378;2023-07-28T02:57:45;17.37;;;10.40;;
35380;SDS011;21486;51.916;8.378;2023-07-28T03:00:11;19.75;;;10.80;;
35380;SDS011;21486;51.916;8.378;2023-07-28T03:02:37;15.65;;;10.25;;
35380;SDS011;21486;51.916;8.378;2023-07-28T03:05:02;16.30;;;11.07;;
35380;SDS011;21486;51.916;8.378;2023-07-28T03:07:29;18.17;;;11.52;;
35380;SDS011;21486;51.916;8.378;2023-07-28T03:09:55;16.58;;;11.05;;
35380;SDS011;21486;51.916;8.378;2023-07-28T03:12:20;20.80;;;11.70;;
35380;SDS011;21486;51.916;8.378;2023-07-28T03:14:46;18.35;;;11.48;;
35380;SDS011;21486;51.916;8.378;2023-07-28T03:17:12;20.07;;;11.67;;
35380;SDS011;21486;51.916;8.378;2023-07-28T03:19:37;16.38;;;12.18;;
35380;SDS011;21486;51.916;8.378;2023-07-28T03:22:03;20.40;;;12.40;;
35380;SDS011;21486;51.916;8.378;2023-07-28T03:24:28;20.80;;;12.93;;
35380;SDS011;21486;51.916;8.378;2023-07-28T03:26:54;21.85;;;13.88;;
35380;SDS011;21486;51.916;8.378;2023-07-28T03:29:19;18.33;;;13.07;;
35380;SDS011;21486;51.916;8.378;2023-07-28T03:31:45;22.77;;;14.20;;
35380;SDS011;21486;51.916;8.378;2023-07-28T03:34:11;22.95;;;14.27;;
35380;SDS011;21486;51.916;8.378;2023-07-28T03:36:36;21.40;;;14.10;;
35380;SDS011;21486;51.916;8.378;2023-07-28T03:39:02;21.17;;;13.87;;
35380;SDS011;21486;51.916;8.378;2023-07-28T03:41:27;22.43;;;14.70;;
35380;SDS011;21486;51.916;8.378;2023-07-28T03:43:53;22.73;;;14.30;;
35380;SDS011;21486;51.916;8.378;2023-07-28T03:46:19;22.33;;;13.90;;
35380;SDS011;21486;51.916;8.378;2023-07-28T03:48:45;19.25;;;13.90;;
35380;SDS011;21486;51.916;8.378;2023-07-28T03:51:10;22.60;;;13.83;;
35380;SDS011;21486;51.916;8.378;2023-07-28T03:53:36;27.00;;;14.60;;
35380;SDS011;21486;51.916;8.378;2023-07-28T03:56:02;23.15;;;14.23;;
35380;SDS011;21486;51.916;8.378;2023-07-28T03:58:28;21.05;;;14.07;;
35380;SDS011;21486;51.916;8.378;2023-07-28T04:00:54;21.02;;;13.73;;
35380;SDS011;21486;51.916;8.378;2023-07-28T04:03:20;19.55;;;13.55;;
35380;SDS011;21486;51.916;8.378;2023-07-28T04:05:45;19.42;;;12.70;;
35380;SDS011;21486;51.916;8.378;2023-07-28T04:08:11;19.25;;;13.07;;
35380;SDS011;21486;51.916;8.378;2023-07-28T04:10:36;19.63;;;12.47;;
35380;SDS011;21486;51.916;8.378;2023-07-28T04:13:02;17.38;;;12.35;;
35380;SDS011;21486;51.916;8.378;2023-07-28T04:15:28;20.17;;;13.43;;
35380;SDS011;21486;51.916;8.378;2023-07-28T04:17:53;19.20;;;12.10;;
35380;SDS011;21486;51.916;8.378;2023-07-28T04:20:19;17.83;;;12.25;;
35380;SDS011;21486;51.916;8.378;2023-07-28T04:22:44;15.48;;;11.45;;
35380;SDS011;21486;51.916;8.378;2023-07-28T04:25:10;18.53;;;12.20;;
35380;SDS011;21486;51.916;8.378;2023-07-28T04:27:35;16.38;;;12.00;;
35380;SDS011;21486;51.916;8.378;2023-07-28T04:30:01;16.95;;;11.27;;
35380;SDS011;21486;51.916;8.378;2023-07-28T04:32:27;16.50;;;11.73;;
35380;SDS011;21486;51.916;8.378;2023-07-28T04:34:52;17.07;;;11.87;;
35380;SDS011;21486;51.916;8.378;2023-07-28T04:37:18;17.48;;;12.20;;
35380;SDS011;21486;51.916;8.378;2023-07-28T04:39:44;15.95;;;11.90;;
35380;SDS011;21486;51.916;8.378;2023-07-28T04:42:09;17.15;;;11.77;;
35380;SDS011;21486;51.916;8.378;2023-07-28T04:44:37;16.87;;;11.97;;
35380;SDS011;21486;51.916;8.378;2023-07-28T04:47:04;17.73;;;11.77;;
35380;SDS011;21486;51.916;8.378;2023-07-28T04:49:30;23.43;;;11.50;;
35380;SDS011;21486;51.916;8.378;2023-07-28T04:51:56;18.43;;;12.60;;
35380;SDS011;21486;51.916;8.378;2023-07-28T04:54:21;16.85;;;11.68;;
35380;SDS011;21486;51.916;8.378;2023-07-28T04:56:47;18.03;;;12.87;;
35380;SDS011;21486;51.916;8.378;2023-07-28T04:59:14;17.75;;;13.02;;
35380;SDS011;21486;51.916;8.378;2023-07-28T05:01:40;18.65;;;12.45;;
35380;SDS011;21486;51.916;8.378;2023-07-28T05:04:05;17.83;;;11.87;;
35380;SDS011;21486;51.916;8.378;2023-07-28T05:06:31;17.37;;;12.57;;
35380;SDS011;21486;51.916;8.378;2023-07-28T05:08:57;18.35;;;12.93;;
35380;SDS011;21486;51.916;8.378;2023-07-28T05:11:22;19.50;;;12.37;;
35380;SDS011;21486;51.916;8.378;2023-07-28T05:13:48;18.80;;;12.53;;
35380;SDS011;21486;51.916;8.378;2023-07-28T05:16:13;18.83;;;12.63;;
35380;SDS011;21486;51.916;8.378;2023-07-28T05:18:39;18.63;;;12.77;;
35380;SDS011;21486;51.916;8.378;2023-07-28T05:21:07;16.63;;;12.02;;
35380;SDS011;21486;51.916;8.378;2023-07-28T05:23:33;17.60;;;12.75;;
35380;SDS011;21486;51.916;8.378;2023-07-28T05:25:58;19.10;;;11.83;;
35380;SDS011;21486;51.916;8.378;2023-07-28T05:28:24;18.15;;;11.88;;
35380;SDS011;21486;51.916;8.378;2023-07-28T05:30:49;16.07;;;11.60;;
35380;SDS011;21486;51.916;8.378;2023-07-28T05:33:15;19.73;;;12.40;;
35380;SDS011;21486;51.916;8.378;2023-07-28T05:35:41;16.70;;;12.05;;
35380;SDS011;21486;51.916;8.378;2023-07-28T05:38:06;17.63;;;11.57;;
35380;SDS011;21486;51.916;8.378;2023-07-28T05:40:32;15.82;;;11.07;;
35380;SDS011;21486;51.916;8.378;2023-07-28T05:42:57;18.40;;;11.83;;
35380;SDS011;21486;51.916;8.378;2023-07-28T05:45:23;21.17;;;12.57;;
35380;SDS011;21486;51.916;8.378;2023-07-28T05:47:48;16.95;;;11.98;;
35380;SDS011;21486;51.916;8.378;2023-07-28T05:50:14;17.97;;;11.97;;
35380;SDS011;21486;51.916;8.378;2023-07-28T05:52:40;18.17;;;11.75;;
35380;SDS011;21486;51.916;8.378;2023-07-28T05:55:05;17.80;;;12.23;;
35380;SDS011;21486;51.916;8.378;2023-07-28T05:57:31;16.98;;;12.68;;
35380;SDS011;21486;51.916;8.378;2023-07-28T05:59:57;17.87;;;12.87;;
35380;SDS011;21486;51.916;8.378;2023-07-28T06:02:22;16.95;;;12.50;;
35380;SDS011;21486;51.916;8.378;2023-07-28T06:04:48;18.27;;;12.57;;
35380;SDS011;21486;51.916;8.378;2023-07-28T06:07:13;16.53;;;12.23;;
35380;SDS011;21486;51.916;8.378;2023-07-28T06:09:39;18.67;;;12.75;;
35380;SDS011;21486;51.916;8.378;2023-07-28T06:12:04;16.90;;;13.03;;
35380;SDS011;21486;51.916;8.378;2023-07-28T06:14:30;17.27;;;13.38;;
35380;SDS011;21486;51.916;8.378;2023-07-28T06:16:56;18.00;;;13.57;;
35380;SDS011;21486;51.916;8.378;2023-07-28T06:19:21;17.23;;;13.27;;
35380;SDS011;21486;51.916;8.378;2023-07-28T06:21:51;19.03;;;13.63;;
35380;SDS011;21486;51.916;8.378;2023-07-28T06:24:17;17.75;;;14.10;;
35380;SDS011;21486;51.916;8.378;2023-07-28T06:26:43;18.15;;;14.30;;
35380;SDS011;21486;51.916;8.378;2023-07-28T06:29:08;19.47;;;14.37;;
35380;SDS011;21486;51.916;8.378;2023-07-28T06:31:34;22.27;;;14.40;;
35380;SDS011;21486;51.916;8.378;2023-07-28T06:33:59;19.55;;;14.20;;
35380;SDS011;21486;51.916;8.378;2023-07-28T06:36:25;18.17;;;13.77;;
35380;SDS011;21486;51.916;8.378;2023-07-28T06:38:52;21.95;;;14.05;;
35380;SDS011;21486;51.916;8.378;2023-07-28T06:41:20;18.92;;;13.00;;
35380;SDS011;21486;51.916;8.378;2023-07-28T06:43:45;18.23;;;13.52;;
35380;SDS011;21486;51.916;8.378;2023-07-28T06:46:13;17.73;;;13.35;;
35380;SDS011;21486;51.916;8.378;2023-07-28T06:48:39;17.77;;;13.57;;
35380;SDS011;21486;51.916;8.378;2023-07-28T06:51:04;19.67;;;13.70;;
35380;SDS011;21486;51.916;8.378;2023-07-28T06:53:31;18.92;;;13.48;;
35380;SDS011;21486;51.916;8.378;2023-07-28T06:55:56;18.80;;;12.65;;
35380;SDS011;21486;51.916;8.378;2023-07-28T06:58:22;17.03;;;13.07;;
35380;SDS011;21486;51.916;8.378;2023-07-28T07:00:47;16.15;;;12.80;;
35380;SDS011;21486;51.916;8.378;2023-07-28T07:03:13;18.10;;;13.67;;
35380;SDS011;21486;51.916;8.378;2023-07-28T07:05:39;17.77;;;13.73;;
35380;SDS011;21486;51.916;8.378;2023-07-28T07:08:05;19.03;;;14.00;;
35380;SDS011;21486;51.916;8.378;2023-07-28T07:10:30;19.30;;;14.50;;
35380;SDS011;21486;51.916;8.378;2023-07-28T07:12:56;18.35;;;14.35;;
35380;SDS011;21486;51.916;8.378;2023-07-28T07:15:22;16.13;;;13.37;;
35380;SDS011;21486;51.916;8.378;2023-07-28T07:17:47;20.17;;;13.13;;
35380;SDS011;21486;51.916;8.378;2023-07-28T07:20:13;17.40;;;14.03;;
35380;SDS011;21486;51.916;8.378;2023-07-28T07:22:40;17.23;;;13.27;;
35380;SDS011;21486;51.916;8.378;2023-07-28T07:25:06;19.17;;;13.20;;
35380;SDS011;21486;51.916;8.378;2023-07-28T07:27:32;17.52;;;13.30;;
35380;SDS011;21486;51.916;8.378;2023-07-28T07:29:57;19.93;;;13.67;;
35380;SDS011;21486;51.916;8.378;2023-07-28T07:32:23;19.00;;;13.27;;
35380;SDS011;21486;51.916;8.378;2023-07-28T07:34:48;18.67;;;13.90;;
35380;SDS011;21486;51.916;8.378;2023-07-28T07:37:14;16.83;;;13.20;;
35380;SDS011;21486;51.916;8.378;2023-07-28T07:39:40;18.35;;;13.40;;
35380;SDS011;21486;51.916;8.378;2023-07-28T07:42:06;15.38;;;12.07;;
35380;SDS011;21486;51.916;8.378;2023-07-28T07:44:34;16.30;;;12.93;;
35380;SDS011;21486;51.916;8.378;2023-07-28T07:47:00;19.33;;;13.30;;
35380;SDS011;21486;51.916;8.378;2023-07-28T07:49:36;15.82;;;12.88;;
35380;SDS011;21486;51.916;8.378;2023-07-28T07:52:01;16.50;;;12.63;;
35380;SDS011;21486;51.916;8.378;2023-07-28T07:54:27;14.57;;;10.93;;
35380;SDS011;21486;51.916;8.378;2023-07-28T07:56:52;15.43;;;10.93;;
35380;SDS011;21486;51.916;8.378;2023-07-28T07:59:18;15.95;;;11.45;;
35380;SDS011;21486;51.916;8.378;2023-07-28T08:01:43;15.33;;;11.57;;
35380;SDS011;21486;51.916;8.378;2023-07-28T08:04:09;15.93;;;11.57;;
35380;SDS011;21486;51.916;8.378;2023-07-28T08:06:35;15.00;;;10.48;;
35380;SDS011;21486;51.916;8.378;2023-07-28T08:09:01;16.40;;;10.20;;
35380;SDS011;21486;51.916;8.378;2023-07-28T08:11:27;13.93;;;9.57;;
35380;SDS011;21486;51.916;8.378;2023-07-28T08:13:53;13.95;;;9.15;;
35380;SDS011;21486;51.916;8.378;2023-07-28T08:16:20;12.82;;;9.15;;
35380;SDS011;21486;51.916;8.378;2023-07-28T08:18:45;12.30;;;8.50;;
35380;SDS011;21486;51.916;8.378;2023-07-28T08:21:11;13.57;;;9.02;;
35380;SDS011;21486;51.916;8.378;2023-07-28T08:23:37;10.82;;;8.02;;
35380;SDS011;21486;51.916;8.378;2023-07-28T08:26:02;11.77;;;8.27;;
35380;SDS011;21486;51.916;8.378;2023-07-28T08:28:28;13.63;;;8.18;;
35380;SDS011;21486;51.916;8.378;2023-07-28T08:30:55;12.93;;;9.07;;
35380;SDS011;21486;51.916;8.378;2023-07-28T08:33:24;14.18;;;8.43;;
35380;SDS011;21486;51.916;8.378;2023-07-28T08:35:49;14.13;;;7.90;;
35380;SDS011;21486;51.916;8.378;2023-07-28T08:38:15;9.80;;;7.73;;
35380;SDS011;21486;51.916;8.378;2023-07-28T08:40:43;12.27;;;8.33;;
35380;SDS011;21486;51.916;8.378;2023-07-28T08:43:09;11.73;;;8.30;;
35380;SDS011;21486;51.916;8.378;2023-07-28T08:45:34;11.02;;;8.38;;
35380;SDS011;21486;51.916;8.378;2023-07-28T08:48:00;10.83;;;7.07;;
35380;SDS011;21486;51.916;8.378;2023-07-28T08:50:25;7.63;;;5.80;;
35380;SDS011;21486;51.916;8.378;2023-07-28T08:52:51;8.30;;;4.70;;
35380;SDS011;21486;51.916;8.378;2023-07-28T08:55:17;6.03;;;4.38;;
35380;SDS011;21486;51.916;8.378;2023-07-28T08:57:42;7.93;;;4.77;;
35380;SDS011;21486;51.916;8.378;2023-07-28T09:00:11;6.57;;;5.10;;
35380;SDS011;21486;51.916;8.378;2023-07-28T09:02:42;8.18;;;5.55;;
35380;SDS011;21486;51.916;8.378;2023-07-28T09:05:08;9.30;;;6.00;;
35380;SDS011;21486;51.916;8.378;2023-07-28T09:07:42;7.32;;;5.93;;
35380;SDS011;21486;51.916;8.378;2023-07-28T09:10:08;7.93;;;6.53;;
35380;SDS011;21486;51.916;8.378;2023-07-28T09:12:33;8.13;;;6.35;;
35380;SDS011;21486;51.916;8.378;2023-07-28T09:14:59;10.32;;;6.40;;
35380;SDS011;21486;51.916;8.378;2023-07-28T09:17:25;9.60;;;6.50;;
35380;SDS011;21486;51.916;8.378;2023-07-28T09:19:54;12.32;;;6.82;;
35380;SDS011;21486;51.916;8.378;2023-07-28T09:22:21;8.55;;;6.82;;
35380;SDS011;21486;51.916;8.378;2023-07-28T09:24:47;8.20;;;6.38;;
35380;SDS011;21486;51.916;8.378;2023-07-28T09:27:23;8.07;;;7.05;;
35380;SDS011;21486;51.916;8.378;2023-07-28T09:29:50;9.30;;;6.85;;
35380;SDS011;21486;51.916;8.378;2023-07-28T09:32:17;8.65;;;6.93;;
35380;SDS011;21486;51.916;8.378;2023-07-28T09:35:07;10.67;;;6.57;;
35380;SDS011;21486;51.916;8.378;2023-07-28T09:37:36;9.70;;;5.72;;
35380;SDS011;21486;51.916;8.378;2023-07-28T09:40:03;7.22;;;5.60;;
35380;SDS011;21486;51.916;8.378;2023-07-28T09:42:31;6.63;;;5.10;;
35380;SDS011;21486;51.916;8.378;2023-07-28T09:44:57;6.20;;;5.03;;
35380;SDS011;21486;51.916;8.378;2023-07-28T09:47:23;6.97;;;5.18;;
35380;SDS011;21486;51.916;8.378;2023-07-28T09:49:49;7.47;;;5.03;;
35380;SDS011;21486;51.916;8.378;2023-07-28T09:52:17;7.75;;;5.40;;
35380;SDS011;21486;51.916;8.378;2023-07-28T09:54:44;7.78;;;5.50;;
35380;SDS011;21486;51.916;8.378;2023-07-28T09:57:13;10.10;;;6.85;;
35380;SDS011;21486;51.916;8.378;2023-07-28T09:59:45;8.30;;;6.47;;
35380;SDS011;21486;51.916;8.378;2023-07-28T10:02:12;9.27;;;7.20;;
35380;SDS011;21486;51.916;8.378;2023-07-28T10:04:38;8.98;;;6.70;;
35380;SDS011;21486;51.916;8.378;2023-07-28T10:07:04;9.20;;;5.60;;
35380;SDS011;21486;51.916;8.378;2023-07-28T10:09:32;8.65;;;5.15;;
35380;SDS011;21486;51.916;8.378;2023-07-28T10:11:58;7.45;;;5.63;;
35380;SDS011;21486;51.916;8.378;2023-07-28T10:14:27;7.90;;;5.10;;
35380;SDS011;21486;51.916;8.378;2023-07-28T10:16:54;7.53;;;5.15;;
35380;SDS011;21486;51.916;8.378;2023-07-28T10:19:20;7.87;;;5.77;;
35380;SDS011;21486;51.916;8.378;2023-07-28T10:21:46;8.70;;;6.30;;
35380;SDS011;21486;51.916;8.378;2023-07-28T10:24:12;10.37;;;6.87;;
35380;SDS011;21486;51.916;8.378;2023-07-28T10:26:39;10.35;;;6.28;;
35380;SDS011;21486;51.916;8.378;2023-07-28T10:31:35;8.57;;;5.83;;
35380;SDS011;21486;51.916;8.378;2023-07-28T10:34:01;9.50;;;5.78;;
35380;SDS011;21486;51.916;8.378;2023-07-28T10:39:00;11.20;;;7.77;;
35380;SDS011;21486;51.916;8.378;2023-07-28T10:41:26;15.13;;;8.05;;
35380;SDS011;21486;51.916;8.378;2023-07-28T10:43:51;16.17;;;11.75;;
35380;SDS011;21486;51.916;8.378;2023-07-28T10:46:18;22.80;;;16.02;;
35380;SDS011;21486;51.916;8.378;2023-07-28T10:48:46;25.25;;;16.23;;
35380;SDS011;21486;51.916;8.378;2023-07-28T10:51:25;29.10;;;19.02;;
35380;SDS011;21486;51.916;8.378;2023-07-28T10:53:56;29.65;;;20.35;;
35380;SDS011;21486;51.916;8.378;2023-07-28T10:56:22;33.10;;;20.53;;
35380;SDS011;21486;51.916;8.378;2023-07-28T10:58:58;27.48;;;18.83;;
35380;SDS011;21486;51.916;8.378;2023-07-28T11:01:32;30.40;;;19.60;;
35380;SDS011;21486;51.916;8.378;2023-07-28T11:06:32;28.77;;;20.50;;
35380;SDS011;21486;51.916;8.378;2023-07-28T11:08:57;30.87;;;20.77;;
35380;SDS011;21486;51.916;8.378;2023-07-28T11:11:23;29.42;;;20.55;;
35380;SDS011;21486;51.916;8.378;2023-07-28T11:13:48;30.67;;;20.70;;
35380;SDS011;21486;51.916;8.378;2023-07-28T11:16:14;28.00;;;19.83;;
35380;SDS011;21486;51.916;8.378;2023-07-28T11:18:39;24.70;;;19.13;;
35380;SDS011;21486;51.916;8.378;2023-07-28T11:21:05;28.63;;;18.98;;
35380;SDS011;21486;51.916;8.378;2023-07-28T11:23:31;24.50;;;16.77;;
35380;SDS011;21486;51.916;8.378;2023-07-28T11:25:56;23.25;;;16.23;;
35380;SDS011;21486;51.916;8.378;2023-07-28T11:28:22;19.27;;;14.67;;
35380;SDS011;21486;51.916;8.378;2023-07-28T11:30:47;17.60;;;14.27;;
35380;SDS011;21486;51.916;8.378;2023-07-28T11:33:13;20.27;;;15.47;;
35380;SDS011;21486;51.916;8.378;2023-07-28T11:35:40;23.63;;;16.63;;
35380;SDS011;21486;51.916;8.378;2023-07-28T11:38:09;19.17;;;14.63;;
35380;SDS011;21486;51.916;8.378;2023-07-28T11:40:35;20.52;;;15.50;;
35380;SDS011;21486;51.916;8.378;2023-07-28T11:43:01;21.25;;;14.63;;
35380;SDS011;21486;51.916;8.378;2023-07-28T11:45:28;21.15;;;14.35;;
35380;SDS011;21486;51.916;8.378;2023-07-28T11:50:28;17.73;;;13.40;;
35380;SDS011;21486;51.916;8.378;2023-07-28T11:52:54;16.63;;;12.00;;
35380;SDS011;21486;51.916;8.378;2023-07-28T11:55:21;17.95;;;13.48;;
35380;SDS011;21486;51.916;8.378;2023-07-28T11:57:47;17.00;;;12.85;;
35380;SDS011;21486;51.916;8.378;2023-07-28T12:00:13;16.00;;;13.05;;
35380;SDS011;21486;51.916;8.378;2023-07-28T12:02:41;18.10;;;12.45;;
35380;SDS011;21486;51.916;8.378;2023-07-28T12:05:14;15.15;;;11.93;;
35380;SDS011;21486;51.916;8.378;2023-07-28T12:07:41;14.82;;;10.88;;
35380;SDS011;21486;51.916;8.378;2023-07-28T12:10:11;13.73;;;9.90;;
35380;SDS011;21486;51.916;8.378;2023-07-28T12:15:28;12.27;;;9.05;;
35380;SDS011;21486;51.916;8.378;2023-07-28T12:18:07;9.35;;;8.15;;
35380;SDS011;21486;51.916;8.378;2023-07-28T12:20:40;10.55;;;7.15;;
35380;SDS011;21486;51.916;8.378;2023-07-28T12:23:15;7.88;;;6.70;;
35380;SDS011;21486;51.916;8.378;2023-07-28T12:25:42;9.15;;;6.65;;
35380;SDS011;21486;51.916;8.378;2023-07-28T12:28:08;7.17;;;5.53;;
35380;SDS011;21486;51.916;8.378;2023-07-28T12:30:35;8.32;;;5.72;;
35380;SDS011;21486;51.916;8.378;2023-07-28T12:33:01;9.40;;;5.28;;
35380;SDS011;21486;51.916;8.378;2023-07-28T12:35:27;6.13;;;5.10;;
35380;SDS011;21486;51.916;8.378;2023-07-28T12:37:57;7.18;;;5.13;;
35380;SDS011;21486;51.916;8.378;2023-07-28T12:40:25;7.50;;;5.15;;
35380;SDS011;21486;51.916;8.378;2023-07-28T12:42:53;6.78;;;4.85;;
35380;SDS011;21486;51.916;8.378;2023-07-28T12:45:19;6.18;;;4.47;;
35380;SDS011;21486;51.916;8.378;2023-07-28T12:47:46;7.32;;;4.20;;
35380;SDS011;21486;51.916;8.378;2023-07-28T12:50:11;6.27;;;4.70;;
35380;SDS011;21486;51.916;8.378;2023-07-28T12:52:37;8.00;;;4.60;;
35380;SDS011;21486;51.916;8.378;2023-07-28T12:55:03;5.10;;;4.10;;
35380;SDS011;21486;51.916;8.378;2023-07-28T12:57:29;6.50;;;4.03;;
35380;SDS011;21486;51.916;8.378;2023-07-28T12:59:54;6.78;;;4.20;;
35380;SDS011;21486;51.916;8.378;2023-07-28T13:02:20;5.53;;;4.23;;
35380;SDS011;21486;51.916;8.378;2023-07-28T13:04:46;5.07;;;3.85;;
35380;SDS011;21486;51.916;8.378;2023-07-28T13:07:11;4.72;;;4.00;;
35380;SDS011;21486;51.916;8.378;2023-07-28T13:09:37;8.80;;;4.40;;
35380;SDS011;21486;51.916;8.378;2023-07-28T13:12:02;6.60;;;4.30;;
35380;SDS011;21486;51.916;8.378;2023-07-28T13:14:28;5.73;;;4.60;;
35380;SDS011;21486;51.916;8.378;2023-07-28T13:16:54;7.57;;;4.88;;
35380;SDS011;21486;51.916;8.378;2023-07-28T13:19:19;6.00;;;5.10;;
35380;SDS011;21486;51.916;8.378;2023-07-28T13:21:45;8.50;;;5.43;;
35380;SDS011;21486;51.916;8.378;2023-07-28T13:24:11;7.40;;;5.80;;
35380;SDS011;21486;51.916;8.378;2023-07-28T13:26:36;5.93;;;5.32;;
35380;SDS011;21486;51.916;8.378;2023-07-28T13:29:02;6.43;;;5.47;;
35380;SDS011;21486;51.916;8.378;2023-07-28T13:31:28;9.07;;;5.82;;
35380;SDS011;21486;51.916;8.378;2023-07-28T13:33:54;8.23;;;5.40;;
35380;SDS011;21486;51.916;8.378;2023-07-28T13:36:19;7.10;;;4.83;;
35380;SDS011;21486;51.916;8.378;2023-07-28T13:38:45;5.95;;;4.75;;
35380;SDS011;21486;51.916;8.378;2023-07-28T13:41:11;6.07;;;4.80;;
35380;SDS011;21486;51.916;8.378;2023-07-28T13:43:36;6.60;;;4.63;;
35380;SDS011;21486;51.916;8.378;2023-07-28T13:46:03;5.03;;;4.40;;
35380;SDS011;21486;51.916;8.378;2023-07-28T13:48:32;7.78;;;4.93;;
35380;SDS011;21486;51.916;8.378;2023-07-28T13:50:58;5.68;;;4.82;;
35380;SDS011;21486;51.916;8.378;2023-07-28T13:53:24;6.57;;;5.00;;
35380;SDS011;21486;51.916;8.378;2023-07-28T13:55:50;7.68;;;5.10;;
35380;SDS011;21486;51.916;8.378;2023-07-28T13:58:16;7.97;;;5.30;;
35380;SDS011;21486;51.916;8.378;2023-07-28T14:00:42;4.73;;;4.27;;
35380;SDS011;21486;51.916;8.378;2023-07-28T14:03:07;6.60;;;4.80;;
35380;SDS011;21486;51.916;8.378;2023-07-28T14:05:33;5.07;;;4.57;;
35380;SDS011;21486;51.916;8.378;2023-07-28T14:07:58;5.70;;;4.47;;
35380;SDS011;21486;51.916;8.378;2023-07-28T14:10:24;5.03;;;4.53;;
35380;SDS011;21486;51.916;8.378;2023-07-28T14:12:50;6.65;;;4.90;;
35380;SDS011;21486;51.916;8.378;2023-07-28T14:15:15;6.27;;;5.17;;
35380;SDS011;21486;51.916;8.378;2023-07-28T14:17:41;7.93;;;5.05;;
35380;SDS011;21486;51.916;8.378;2023-07-28T14:20:06;6.20;;;4.77;;
35380;SDS011;21486;51.916;8.378;2023-07-28T14:22:34;4.57;;;4.18;;
35380;SDS011;21486;51.916;8.378;2023-07-28T14:24:59;5.20;;;4.43;;
35380;SDS011;21486;51.916;8.378;2023-07-28T14:27:25;7.93;;;4.70;;
35380;SDS011;21486;51.916;8.378;2023-07-28T14:29:50;6.53;;;4.73;;
35380;SDS011;21486;51.916;8.378;2023-07-28T14:32:16;7.17;;;4.97;;
35380;SDS011;21486;51.916;8.378;2023-07-28T14:34:41;8.00;;;5.07;;
35380;SDS011;21486;51.916;8.378;2023-07-28T14:37:07;5.20;;;4.40;;
35380;SDS011;21486;51.916;8.378;2023-07-28T14:39:33;7.43;;;4.50;;
35380;SDS011;21486;51.916;8.378;2023-07-28T14:41:59;8.73;;;4.82;;
35380;SDS011;21486;51.916;8.378;2023-07-28T14:44:24;4.17;;;3.73;;